createdAt,value
2022-11-29T00:01:41.047Z,4.18
2022-11-29T00:04:09.646Z,4.11
2022-11-29T00:06:38.066Z,4.12
2022-11-29T00:09:09.110Z,4.15
2022-11-29T00:11:57.202Z,4.13
2022-11-29T00:14:27.170Z,4.12
2022-11-29T00:16:59.446Z,4.16
2022-11-29T00:19:28.074Z,4.19
2022-11-29T00:21:56.036Z,4.18
2022-11-29T00:24:24.173Z,4.16
2022-11-29T00:26:52.125Z,4.20
2022-11-29T00:29:20.534Z,4.17
2022-11-29T00:31:48.615Z,4.17
2022-11-29T00:34:16.725Z,4.14
2022-11-29T00:36:44.783Z,4.12
2022-11-29T00:39:13.244Z,4.11
2022-11-29T00:41:41.343Z,4.07
2022-11-29T00:44:13.915Z,4.02
2022-11-29T00:46:45.065Z,4.00
2022-11-29T00:49:13.220Z,4.01
2022-11-29T00:51:41.401Z,4.00
2022-11-29T00:54:09.720Z,4.00
2022-11-29T00:56:37.826Z,3.99
2022-11-29T00:59:05.908Z,4.04
2022-11-29T01:01:33.935Z,4.01
2022-11-29T01:04:02.769Z,3.96
2022-11-29T01:06:30.830Z,3.91
2022-11-29T01:08:58.858Z,3.83
2022-11-29T01:11:28.113Z,3.82
2022-11-29T01:14:01.778Z,3.79
2022-11-29T01:16:31.956Z,3.70
2022-11-29T01:19:01.692Z,3.65
2022-11-29T01:21:29.895Z,3.61
2022-11-29T01:23:57.926Z,3.63
2022-11-29T01:26:28.954Z,3.61
2022-11-29T01:28:58.112Z,3.66
2022-11-29T01:31:30.518Z,3.71
2022-11-29T01:34:01.605Z,3.71
2022-11-29T01:36:30.218Z,3.74
2022-11-29T01:39:03.508Z,3.78
2022-11-29T01:41:34.038Z,3.74
2022-11-29T01:44:14.085Z,3.77
2022-11-29T01:46:45.097Z,3.76
2022-11-29T01:49:21.540Z,3.77
2022-11-29T01:52:13.119Z,3.82
2022-11-29T01:54:43.823Z,3.79
2022-11-29T01:57:13.175Z,3.82
2022-11-29T01:59:47.996Z,3.85
2022-11-29T02:02:21.066Z,3.84
2022-11-29T02:04:49.926Z,3.83
2022-11-29T02:07:18.119Z,3.78
2022-11-29T02:09:46.165Z,3.82
2022-11-29T02:12:26.217Z,3.76
2022-11-29T02:15:35.631Z,3.78
2022-11-29T02:18:11.877Z,3.73
2022-11-29T02:21:01.445Z,3.70
2022-11-29T02:23:45.435Z,3.69
2022-11-29T02:26:40.548Z,3.71
2022-11-29T02:29:20.641Z,3.65
2022-11-29T02:32:16.063Z,3.59
2022-11-29T02:35:13.071Z,3.61
2022-11-29T02:38:11.265Z,3.50
2022-11-29T02:40:57.199Z,3.45
2022-11-29T02:43:52.621Z,3.39
2022-11-29T02:46:47.507Z,3.38
2022-11-29T02:49:42.578Z,3.40
2022-11-29T02:52:49.613Z,3.36
2022-11-29T02:55:55.250Z,3.28
2022-11-29T02:58:37.066Z,3.25
2022-11-29T03:01:20.284Z,3.23
2022-11-29T03:04:35.951Z,3.25
2022-11-29T03:07:25.632Z,3.21
2022-11-29T03:10:00.884Z,3.23
2022-11-29T03:12:47.998Z,3.24
2022-11-29T03:15:25.130Z,3.28
2022-11-29T03:18:17.482Z,3.16
2022-11-29T03:21:18.725Z,3.10
2022-11-29T03:23:57.602Z,3.07
2022-11-29T03:27:06.641Z,3.05
2022-11-29T03:29:47.028Z,3.04
2022-11-29T03:32:28.262Z,3.02
2022-11-29T03:35:02.516Z,3.04
2022-11-29T03:37:51.849Z,3.10
2022-11-29T03:40:25.351Z,3.07
2022-11-29T03:42:56.859Z,3.08
2022-11-29T03:45:32.230Z,3.09
2022-11-29T03:48:08.140Z,3.07
2022-11-29T03:50:44.313Z,3.15
2022-11-29T03:53:23.008Z,3.11
2022-11-29T03:56:23.210Z,3.14
2022-11-29T03:59:21.338Z,3.18
2022-11-29T04:01:54.736Z,3.19
2022-11-29T04:04:50.707Z,3.14
2022-11-29T04:07:34.726Z,3.09
2022-11-29T04:10:25.672Z,3.02
2022-11-29T04:13:15.244Z,3.08
2022-11-29T04:16:03.157Z,3.08
2022-11-29T04:18:51.712Z,3.06
2022-11-29T04:21:45.043Z,2.98
2022-11-29T04:24:31.462Z,2.88
2022-11-29T04:27:02.349Z,2.77
2022-11-29T04:29:51.613Z,2.78
2022-11-29T04:32:41.387Z,2.73
2022-11-29T04:35:22.854Z,2.70
2022-11-29T04:38:28.462Z,2.68
2022-11-29T04:41:24.219Z,2.67
2022-11-29T04:44:09.421Z,2.65
2022-11-29T04:47:11.238Z,2.67
2022-11-29T04:50:00.558Z,2.63
2022-11-29T04:52:28.655Z,2.61
2022-11-29T04:55:31.107Z,2.63
2022-11-29T04:58:17.834Z,2.63
2022-11-29T05:00:57.396Z,2.67
2022-11-29T05:03:33.402Z,2.63
2022-11-29T05:06:39.818Z,2.66
2022-11-29T05:09:38.335Z,2.62
2022-11-29T05:12:23.441Z,2.58
2022-11-29T05:15:24.498Z,2.57
2022-11-29T05:18:26.809Z,2.54
2022-11-29T05:21:11.443Z,2.42
2022-11-29T05:23:51.240Z,2.45
2022-11-29T05:26:38.439Z,2.45
2022-11-29T05:29:12.996Z,2.50
2022-11-29T05:31:56.792Z,2.57
2022-11-29T05:35:03.959Z,2.58
2022-11-29T05:37:44.945Z,2.57
2022-11-29T05:40:31.378Z,2.60
2022-11-29T05:43:05.040Z,2.58
2022-11-29T05:45:48.381Z,2.58
2022-11-29T05:48:33.046Z,2.55
2022-11-29T05:51:20.027Z,2.56
2022-11-29T05:54:18.632Z,2.56
2022-11-29T05:57:15.546Z,2.55
2022-11-29T05:59:47.453Z,2.51
2022-11-29T06:02:21.263Z,2.54
2022-11-29T06:05:15.683Z,2.59
2022-11-29T06:07:56.696Z,2.59
2022-11-29T06:10:32.917Z,2.55
2022-11-29T06:13:01.003Z,2.59
2022-11-29T06:15:56.957Z,2.64
2022-11-29T06:18:36.997Z,2.63
2022-11-29T06:21:34.662Z,2.62
2022-11-29T06:24:25.542Z,2.59
2022-11-29T06:27:22.528Z,2.52
2022-11-29T06:29:59.572Z,2.45
2022-11-29T06:32:42.548Z,2.44
2022-11-29T06:35:29.002Z,2.47
2022-11-29T06:37:58.633Z,2.51
2022-11-29T06:40:26.935Z,2.55
2022-11-29T06:42:54.922Z,2.56
2022-11-29T06:45:23.339Z,2.58
2022-11-29T06:48:10.026Z,2.59
2022-11-29T06:50:55.979Z,2.62
2022-11-29T06:53:30.574Z,2.58
2022-11-29T06:56:04.759Z,2.58
2022-11-29T06:59:14.582Z,2.63
2022-11-29T07:02:00.153Z,2.58
2022-11-29T07:04:50.124Z,2.62
2022-11-29T07:07:20.502Z,2.65
2022-11-29T07:09:53.292Z,2.67
2022-11-29T07:12:21.707Z,2.66
2022-11-29T07:14:50.075Z,2.68
2022-11-29T07:17:36.095Z,2.70
2022-11-29T07:20:22.486Z,2.68
2022-11-29T07:22:59.212Z,2.63
2022-11-29T07:25:35.732Z,2.66
2022-11-29T07:28:24.922Z,2.65
2022-11-29T07:30:55.786Z,2.62
2022-11-29T07:33:40.326Z,2.62
2022-11-29T07:36:29.892Z,2.60
2022-11-29T07:39:38.032Z,2.61
2022-11-29T07:42:29.391Z,2.62
2022-11-29T07:45:12.399Z,2.66
2022-11-29T07:47:40.421Z,2.74
2022-11-29T07:50:08.783Z,2.83
2022-11-29T07:52:36.801Z,2.83
2022-11-29T07:55:05.843Z,2.88
2022-11-29T07:57:33.938Z,2.96
2022-11-29T08:00:02.080Z,3.01
2022-11-29T08:02:39.539Z,3.06
2022-11-29T08:05:08.823Z,3.08
2022-11-29T08:07:40.991Z,3.07
2022-11-29T08:10:12.662Z,3.09
2022-11-29T08:12:51.172Z,3.08
2022-11-29T08:15:20.839Z,3.11
2022-11-29T08:17:49.714Z,3.11
2022-11-29T08:20:17.832Z,3.13
2022-11-29T08:22:45.870Z,3.20
2022-11-29T08:25:13.935Z,3.16
2022-11-29T08:27:42.033Z,3.16
2022-11-29T08:30:10.486Z,3.17
2022-11-29T08:32:38.762Z,3.19
2022-11-29T08:35:06.975Z,3.22
2022-11-29T08:37:35.132Z,3.23
2022-11-29T08:40:04.709Z,3.19
2022-11-29T08:42:32.704Z,3.25
2022-11-29T08:45:00.697Z,3.29
2022-11-29T08:47:37.404Z,3.27
2022-11-29T08:50:17.875Z,3.29
2022-11-29T08:53:06.934Z,3.31
2022-11-29T08:55:40.712Z,3.28
2022-11-29T08:58:12.860Z,3.29
2022-11-29T09:00:43.128Z,3.29
2022-11-29T09:03:29.519Z,3.35
2022-11-29T09:05:57.762Z,3.33
2022-11-29T09:08:25.752Z,3.39
2022-11-29T09:10:55.032Z,3.40
2022-11-29T09:13:23.013Z,3.47
2022-11-29T09:15:51.027Z,3.51
2022-11-29T09:18:19.128Z,3.51
2022-11-29T09:20:47.139Z,3.50
2022-11-29T09:23:15.081Z,3.52
2022-11-29T09:25:48.499Z,3.52
2022-11-29T09:28:16.623Z,3.53
2022-11-29T09:30:44.658Z,3.57
2022-11-29T09:33:12.665Z,3.60
2022-11-29T09:35:40.766Z,3.63
2022-11-29T09:38:12.478Z,3.59
2022-11-29T09:41:06.904Z,3.64
2022-11-29T09:43:46.703Z,3.64
2022-11-29T09:46:58.422Z,3.65
2022-11-29T09:49:44.926Z,3.61
2022-11-29T09:52:31.373Z,3.61
2022-11-29T09:55:20.736Z,3.65
2022-11-29T09:57:50.422Z,3.66
2022-11-29T10:00:22.568Z,3.71
2022-11-29T10:02:57.143Z,3.74
2022-11-29T10:05:30.201Z,3.74
2022-11-29T10:08:07.698Z,3.66
2022-11-29T10:10:45.766Z,3.67
2022-11-29T10:13:21.384Z,3.61
2022-11-29T10:15:54.865Z,3.63
2022-11-29T10:18:31.347Z,3.61
2022-11-29T10:21:06.574Z,3.59
2022-11-29T10:23:44.172Z,3.51
2022-11-29T10:26:13.352Z,3.56
2022-11-29T10:28:48.725Z,3.60
2022-11-29T10:31:21.325Z,3.50
2022-11-29T10:33:50.105Z,3.53
2022-11-29T10:36:33.325Z,3.54
2022-11-29T10:39:08.835Z,3.62
2022-11-29T10:41:41.200Z,3.52
2022-11-29T10:44:13.301Z,3.54
2022-11-29T10:46:41.587Z,3.59
2022-11-29T10:49:17.184Z,3.62
2022-11-29T10:51:46.467Z,3.53
2022-11-29T10:54:33.318Z,3.47
2022-11-29T10:57:02.445Z,3.48
2022-11-29T10:59:33.078Z,3.49
2022-11-29T11:02:02.117Z,3.44
2022-11-29T11:04:44.628Z,3.43
2022-11-29T11:07:42.006Z,3.48
2022-11-29T11:10:27.563Z,3.46
2022-11-29T11:13:04.735Z,3.39
2022-11-29T11:15:33.127Z,3.41
2022-11-29T11:18:05.098Z,3.48
2022-11-29T11:20:36.586Z,3.44
2022-11-29T11:23:19.847Z,3.50
2022-11-29T11:25:50.836Z,3.51
2022-11-29T11:28:33.741Z,3.52
2022-11-29T11:31:08.371Z,3.51
2022-11-29T11:33:44.428Z,3.57
2022-11-29T11:36:16.238Z,3.47
2022-11-29T11:38:55.690Z,3.53
2022-11-29T11:41:53.867Z,3.54
2022-11-29T11:44:47.581Z,3.51
2022-11-29T11:47:24.510Z,3.39
2022-11-29T11:50:04.391Z,3.37
2022-11-29T11:52:54.950Z,3.42
2022-11-29T11:55:34.824Z,3.44
2022-11-29T11:58:16.212Z,3.50
2022-11-29T12:01:03.904Z,3.54
2022-11-29T12:03:53.923Z,3.50
2022-11-29T12:06:46.536Z,3.53
2022-11-29T12:09:25.301Z,3.48
2022-11-29T12:11:56.725Z,3.49
2022-11-29T12:14:32.908Z,3.53
2022-11-29T12:17:32.971Z,3.57
2022-11-29T12:20:19.338Z,3.55
2022-11-29T12:22:59.012Z,3.48
2022-11-29T12:25:35.126Z,3.51
2022-11-29T12:28:04.012Z,3.50
2022-11-29T12:30:32.861Z,3.47
2022-11-29T12:33:22.494Z,3.46
2022-11-29T12:36:06.765Z,3.36
2022-11-29T12:38:48.042Z,3.38
2022-11-29T12:41:22.121Z,3.34
2022-11-29T12:44:08.203Z,3.31
2022-11-29T12:46:38.421Z,3.35
2022-11-29T12:49:13.076Z,3.35
2022-11-29T12:51:53.144Z,3.41
2022-11-29T12:54:29.835Z,3.39
2022-11-29T12:57:28.082Z,3.35
2022-11-29T13:00:02.212Z,3.37
2022-11-29T13:02:50.547Z,3.43
2022-11-29T13:05:28.023Z,3.44
2022-11-29T13:07:56.034Z,3.45
2022-11-29T13:10:55.946Z,3.51
2022-11-29T13:13:50.048Z,3.49
2022-11-29T13:16:46.300Z,3.43
2022-11-29T13:19:29.333Z,3.33
2022-11-29T13:22:09.276Z,3.27
2022-11-29T13:24:46.513Z,3.21
2022-11-29T13:27:28.781Z,3.14
2022-11-29T13:30:02.173Z,3.11
2022-11-29T13:32:39.110Z,3.15
2022-11-29T13:35:38.070Z,3.17
2022-11-29T13:38:37.207Z,3.17
2022-11-29T13:41:15.357Z,3.20
2022-11-29T13:43:55.501Z,3.14
2022-11-29T13:46:32.607Z,3.21
2022-11-29T13:49:00.752Z,3.24
2022-11-29T13:51:38.803Z,3.23
2022-11-29T13:54:27.965Z,3.23
2022-11-29T13:57:09.986Z,3.23
2022-11-29T13:59:47.122Z,3.16
2022-11-29T14:02:30.512Z,3.13
2022-11-29T14:04:59.072Z,3.10
2022-11-29T14:07:27.090Z,3.12
2022-11-29T14:10:08.443Z,3.10
2022-11-29T14:12:46.129Z,3.12
2022-11-29T14:15:29.326Z,3.12
2022-11-29T14:18:02.401Z,3.10
2022-11-29T14:20:30.741Z,3.12
2022-11-29T14:23:04.590Z,3.11
2022-11-29T14:25:51.327Z,3.07
2022-11-29T14:28:23.235Z,3.03
2022-11-29T14:30:54.521Z,3.03
2022-11-29T14:33:44.681Z,3.02
2022-11-29T14:36:17.697Z,3.03
2022-11-29T14:38:51.784Z,3.00
2022-11-29T14:41:41.443Z,2.99
2022-11-29T14:44:20.297Z,3.00
2022-11-29T14:46:59.447Z,3.00
2022-11-29T14:49:28.930Z,2.98
2022-11-29T14:52:15.224Z,3.02
2022-11-29T14:54:57.089Z,3.04
2022-11-29T14:57:49.884Z,3.01
2022-11-29T15:00:23.614Z,2.93
2022-11-29T15:03:00.558Z,2.90
2022-11-29T15:05:34.470Z,2.88
2022-11-29T15:08:21.033Z,2.81
2022-11-29T15:10:57.461Z,2.76
2022-11-29T15:13:32.098Z,2.72
2022-11-29T15:16:31.285Z,2.66
2022-11-29T15:19:36.905Z,2.70
2022-11-29T15:22:15.889Z,2.75
2022-11-29T15:24:57.403Z,2.71
2022-11-29T15:27:25.889Z,2.63
2022-11-29T15:29:54.046Z,2.68
2022-11-29T15:32:32.624Z,2.70
2022-11-29T15:35:01.308Z,2.71
2022-11-29T15:37:32.060Z,2.68
2022-11-29T15:40:04.829Z,2.67
2022-11-29T15:43:14.138Z,2.73
2022-11-29T15:45:48.766Z,2.68
2022-11-29T15:48:23.805Z,2.77
2022-11-29T15:50:57.379Z,2.85
2022-11-29T15:53:36.586Z,2.93
2022-11-29T15:56:12.907Z,2.95
2022-11-29T15:58:41.372Z,2.94
2022-11-29T16:01:21.873Z,2.90
2022-11-29T16:03:54.068Z,2.90
2022-11-29T16:06:54.695Z,2.93
2022-11-29T16:09:51.862Z,2.97
2022-11-29T16:12:19.857Z,3.00
2022-11-29T16:14:58.715Z,3.00
2022-11-29T16:17:33.892Z,2.97
2022-11-29T16:20:23.694Z,2.91
2022-11-29T16:23:13.499Z,2.84
2022-11-29T16:25:52.892Z,2.72
2022-11-29T16:28:20.951Z,2.73
2022-11-29T16:30:49.014Z,2.77
2022-11-29T16:33:21.613Z,2.84
2022-11-29T16:35:50.567Z,2.86
2022-11-29T16:38:21.765Z,2.86
2022-11-29T16:41:08.653Z,2.82
2022-11-29T16:43:50.815Z,2.72
2022-11-29T16:46:21.562Z,2.69
2022-11-29T16:48:50.886Z,2.75
2022-11-29T16:51:23.682Z,2.76
2022-11-29T16:53:53.905Z,2.79
2022-11-29T16:56:28.129Z,2.75
2022-11-29T16:59:24.952Z,2.72
2022-11-29T17:01:49.356Z,2.57
2022-11-29T17:04:24.326Z,2.58
2022-11-29T17:33:29.173Z,2.16
2022-11-29T17:35:55.713Z,2.15
2022-11-29T17:38:22.309Z,2.18
2022-11-29T17:40:48.904Z,2.23
2022-11-29T17:43:15.619Z,2.22
2022-11-29T17:45:42.349Z,2.30
2022-11-29T17:48:09.022Z,2.29
2022-11-29T17:50:37.385Z,2.27
2022-11-29T17:53:04.807Z,2.31
2022-11-29T17:55:31.463Z,2.29
2022-11-29T17:57:58.199Z,2.19
2022-11-29T18:00:24.922Z,2.21
2022-11-29T18:02:51.619Z,2.18
2022-11-29T18:05:18.315Z,2.27
2022-11-29T18:07:57.336Z,2.27
2022-11-29T18:10:28.122Z,2.28
2022-11-29T18:12:54.817Z,2.30
2022-11-29T18:15:21.504Z,2.30
2022-11-29T18:17:48.293Z,2.34
2022-11-29T18:20:15.028Z,2.35
2022-11-29T18:22:41.777Z,2.35
2022-11-29T18:25:37.046Z,2.41
2022-11-29T18:27:55.397Z,2.41
2022-11-29T18:30:22.061Z,2.43
2022-11-29T18:32:48.701Z,2.46
2022-11-29T18:35:15.436Z,2.44
2022-11-29T18:38:13.401Z,2.41
2022-11-29T18:40:28.681Z,2.41
2022-11-29T18:42:55.419Z,2.40
2022-11-29T18:45:22.050Z,2.40
2022-11-29T18:47:48.692Z,2.43
2022-11-29T18:50:15.266Z,2.42
2022-11-29T18:52:41.870Z,2.37
2022-11-29T18:55:08.836Z,2.27
2022-11-29T18:57:35.453Z,2.30
2022-11-29T19:00:03.296Z,2.34
2022-11-29T19:02:30.081Z,2.33
2022-11-29T19:04:56.691Z,2.36
2022-11-29T19:07:23.374Z,2.39
2022-11-29T19:09:50.079Z,2.41
2022-11-29T19:12:16.701Z,2.43
2022-11-29T19:14:49.416Z,2.42
2022-11-29T19:17:17.036Z,2.36
2022-11-29T19:19:43.996Z,2.33
2022-11-29T19:22:10.940Z,2.33
2022-11-29T19:24:37.551Z,2.35
2022-11-29T19:27:04.197Z,2.36
2022-11-29T19:29:33.956Z,2.33
2022-11-29T19:32:03.922Z,2.32
2022-11-29T19:34:30.458Z,2.35
2022-11-29T19:36:56.995Z,2.36
2022-11-29T19:39:25.470Z,2.40
2022-11-29T19:41:52.374Z,2.47
2022-11-29T19:44:19.064Z,2.51
2022-11-29T19:46:47.891Z,2.55
2022-11-29T19:49:14.573Z,2.55
2022-11-29T19:51:41.498Z,2.58
2022-11-29T19:54:09.313Z,2.60
2022-11-29T19:56:36.823Z,2.63
2022-11-29T19:59:05.027Z,2.60
2022-11-29T20:01:40.302Z,2.61
2022-11-29T20:04:09.467Z,2.58
2022-11-29T20:06:36.494Z,2.59
2022-11-29T20:09:04.092Z,2.63
2022-11-29T20:11:30.795Z,2.65
2022-11-29T20:13:59.581Z,2.69
2022-11-29T20:16:27.689Z,2.73
2022-11-29T20:18:55.338Z,2.78
2022-11-29T20:21:28.338Z,2.83
2022-11-29T20:23:56.986Z,2.85
2022-11-29T20:26:24.584Z,2.88
2022-11-29T20:28:51.612Z,2.87
2022-11-29T20:31:21.115Z,2.91
2022-11-29T20:33:49.473Z,2.93
2022-11-29T20:36:43.862Z,2.96
2022-11-29T20:39:30.257Z,2.95
2022-11-29T20:42:18.751Z,2.97
2022-11-29T20:44:57.535Z,2.98
2022-11-29T20:47:26.460Z,3.01
2022-11-29T20:49:53.851Z,3.04
2022-11-29T20:52:29.899Z,3.08
2022-11-29T20:54:56.569Z,3.10
2022-11-29T20:57:23.185Z,3.16
2022-11-29T20:59:49.844Z,3.19
2022-11-29T21:02:16.489Z,3.19
2022-11-29T21:04:43.286Z,3.18
2022-11-29T21:07:10.183Z,3.16
2022-11-29T21:09:36.726Z,3.13
2022-11-29T21:12:04.179Z,3.09
2022-11-29T21:14:31.715Z,3.07
2022-11-29T21:16:59.128Z,3.07
2022-11-29T21:19:26.161Z,3.05
2022-11-29T21:22:10.310Z,3.03
2022-11-29T21:24:52.428Z,2.95
2022-11-29T21:27:33.125Z,2.92
2022-11-29T21:30:05.237Z,2.92
2022-11-29T21:32:32.996Z,2.94
2022-11-29T21:34:59.587Z,2.95
2022-11-29T21:37:29.711Z,2.95
2022-11-29T21:39:57.213Z,2.98
2022-11-29T21:42:24.029Z,3.02
2022-11-29T21:44:50.641Z,3.06
2022-11-29T21:47:17.278Z,3.09
2022-11-29T21:49:44.542Z,3.01
2022-11-29T21:52:11.166Z,2.99
2022-11-29T21:54:38.834Z,2.95
2022-11-29T21:57:05.567Z,2.93
2022-11-29T21:59:32.157Z,2.90
2022-11-29T22:01:58.916Z,2.93
2022-11-29T22:04:25.930Z,2.94
2022-11-29T22:06:52.629Z,2.95
2022-11-29T22:09:19.203Z,2.97
2022-11-29T22:11:46.151Z,2.94
2022-11-29T22:14:18.230Z,2.94
2022-11-29T22:16:59.265Z,2.84
2022-11-29T22:19:30.487Z,2.80
2022-11-29T22:21:59.730Z,2.75
2022-11-29T22:24:29.826Z,2.77
2022-11-29T22:26:56.712Z,2.76
2022-11-29T22:29:23.997Z,2.76
2022-11-29T22:31:52.887Z,2.76
2022-11-29T22:34:20.602Z,2.79
2022-11-29T22:36:47.271Z,2.79
2022-11-29T22:39:14.335Z,2.81
2022-11-29T22:41:41.693Z,2.75
2022-11-29T22:44:08.435Z,2.75
2022-11-29T22:46:38.830Z,2.81
2022-11-29T22:49:05.590Z,2.85
2022-11-29T22:51:34.686Z,2.88
2022-11-29T22:54:07.161Z,2.90
2022-11-29T22:56:41.056Z,2.91
2022-11-29T22:59:08.421Z,2.90
2022-11-29T23:01:37.518Z,2.95
2022-11-29T23:04:06.599Z,2.90
2022-11-29T23:06:34.889Z,2.90
2022-11-29T23:09:19.256Z,2.92
2022-11-29T23:11:51.199Z,2.84
2022-11-29T23:14:19.118Z,2.84
2022-11-29T23:16:46.067Z,2.80
2022-11-29T23:19:16.038Z,2.82
2022-11-29T23:21:45.222Z,2.85
2022-11-29T23:24:13.048Z,2.89
2022-11-29T23:26:43.149Z,2.94
2022-11-29T23:29:12.248Z,2.97
2022-11-29T23:31:39.584Z,3.00
2022-11-29T23:34:07.070Z,3.03
2022-11-29T23:36:33.919Z,3.01
2022-11-29T23:39:04.863Z,3.02
2022-11-29T23:41:32.599Z,3.04
2022-11-29T23:43:59.290Z,3.03
2022-11-29T23:46:26.438Z,3.00
2022-11-29T23:48:53.105Z,3.00
2022-11-29T23:51:20.226Z,3.01
2022-11-29T23:53:54.646Z,3.01
2022-11-29T23:56:21.996Z,3.00
2022-11-29T23:58:49.117Z,3.01
